createdAt,value
2018-03-16T00:01:20.817Z,17.73
2018-03-16T00:03:48.212Z,15.10
2018-03-16T00:06:15.633Z,15.47
2018-03-16T00:08:43.038Z,15.87
2018-03-16T00:11:10.437Z,15.00
2018-03-16T00:13:37.849Z,16.67
2018-03-16T00:16:05.250Z,15.30
2018-03-16T00:18:32.644Z,14.87
2018-03-16T00:21:00.889Z,13.90
2018-03-16T00:23:28.294Z,13.23
2018-03-16T00:25:55.701Z,12.97
2018-03-16T00:28:23.117Z,12.40
2018-03-16T00:30:50.532Z,11.90
2018-03-16T00:33:17.928Z,11.17
2018-03-16T00:35:45.340Z,10.80
2018-03-16T00:38:12.742Z,11.20
2018-03-16T00:40:40.136Z,10.50
2018-03-16T00:43:07.552Z,10.67
2018-03-16T00:45:34.952Z,10.93
2018-03-16T00:48:02.347Z,9.50
2018-03-16T00:50:29.775Z,9.30
2018-03-16T00:52:57.168Z,10.10
2018-03-16T00:55:24.574Z,9.80
2018-03-16T00:57:52.000Z,9.47
2018-03-16T01:00:19.400Z,10.00
2018-03-16T01:02:46.804Z,10.40
2018-03-16T01:05:14.214Z,9.87
2018-03-16T01:07:41.612Z,10.60
2018-03-16T01:10:09.008Z,10.27
2018-03-16T01:12:36.417Z,9.93
2018-03-16T01:15:03.847Z,11.33
2018-03-16T01:17:31.240Z,9.10
2018-03-16T01:19:58.649Z,9.27
2018-03-16T01:22:26.040Z,9.07
2018-03-16T01:24:53.443Z,8.90
2018-03-16T01:27:20.844Z,9.77
2018-03-16T01:29:48.240Z,9.40
2018-03-16T01:32:15.776Z,10.33
2018-03-16T01:34:43.189Z,8.73
2018-03-16T01:37:10.572Z,8.97
2018-03-16T01:39:37.967Z,9.17
2018-03-16T01:42:05.376Z,8.87
2018-03-16T01:44:32.805Z,7.60
2018-03-16T01:47:00.195Z,6.90
2018-03-16T01:49:27.637Z,6.40
2018-03-16T01:51:55.053Z,6.57
2018-03-16T01:54:22.453Z,5.50
2018-03-16T01:56:49.865Z,4.43
2018-03-16T01:59:17.257Z,4.80
2018-03-16T02:01:44.673Z,4.40
2018-03-16T02:04:12.086Z,4.23
2018-03-16T02:06:39.471Z,3.97
2018-03-16T02:09:06.869Z,4.10
2018-03-16T02:11:34.277Z,4.70
2018-03-16T02:14:01.671Z,4.17
2018-03-16T02:16:29.072Z,4.77
2018-03-16T02:18:56.482Z,4.80
2018-03-16T02:21:23.873Z,4.27
2018-03-16T02:23:51.253Z,4.40
2018-03-16T02:26:18.656Z,4.20
2018-03-16T02:28:46.063Z,6.00
2018-03-16T02:31:13.466Z,5.40
2018-03-16T02:33:40.874Z,5.63
2018-03-16T02:36:08.256Z,4.70
2018-03-16T02:38:35.652Z,6.20
2018-03-16T02:41:03.061Z,5.67
2018-03-16T02:43:30.447Z,5.70
2018-03-16T02:45:57.841Z,6.70
2018-03-16T02:48:25.247Z,5.03
2018-03-16T02:50:52.636Z,4.93
2018-03-16T02:53:20.037Z,5.00
2018-03-16T02:55:47.447Z,4.50
2018-03-16T02:58:14.837Z,4.73
2018-03-16T03:00:42.221Z,5.10
2018-03-16T03:03:09.626Z,4.27
2018-03-16T03:05:37.038Z,4.30
2018-03-16T03:08:04.420Z,4.23
2018-03-16T03:10:31.829Z,4.93
2018-03-16T03:12:59.217Z,4.73
2018-03-16T03:15:26.600Z,4.67
2018-03-16T03:17:54.018Z,4.10
2018-03-16T03:20:21.412Z,4.13
2018-03-16T03:22:48.797Z,4.87
2018-03-16T03:25:16.205Z,4.67
2018-03-16T03:27:43.601Z,4.90
2018-03-16T03:30:11.007Z,5.03
2018-03-16T03:32:38.421Z,4.73
2018-03-16T03:35:05.816Z,5.73
2018-03-16T03:37:33.208Z,6.00
2018-03-16T03:40:00.628Z,4.83
2018-03-16T03:42:28.012Z,5.73
2018-03-16T03:44:55.405Z,5.60
2018-03-16T03:47:22.813Z,5.00
2018-03-16T03:49:50.208Z,5.23
2018-03-16T03:52:17.601Z,5.93
2018-03-16T03:54:45.007Z,4.33
2018-03-16T03:57:12.400Z,4.80
2018-03-16T03:59:39.789Z,5.20
2018-03-16T04:02:07.194Z,5.60
2018-03-16T04:04:34.589Z,5.40
2018-03-16T04:07:01.980Z,6.20
2018-03-16T04:09:29.380Z,5.47
2018-03-16T04:11:56.777Z,5.23
2018-03-16T04:14:24.168Z,4.90
2018-03-16T04:16:51.581Z,6.27
2018-03-16T04:19:18.985Z,6.37
2018-03-16T04:21:46.371Z,4.43
2018-03-16T04:24:13.773Z,5.13
2018-03-16T04:26:41.160Z,5.40
2018-03-16T04:29:08.569Z,5.90
2018-03-16T04:31:35.977Z,5.43
2018-03-16T04:34:03.380Z,6.47
2018-03-16T04:36:30.773Z,7.20
2018-03-16T04:38:58.181Z,6.00
2018-03-16T04:41:25.577Z,6.93
2018-03-16T04:43:52.976Z,6.27
2018-03-16T04:46:20.384Z,5.17
2018-03-16T04:48:47.781Z,5.50
2018-03-16T04:51:15.178Z,5.20
2018-03-16T04:53:42.584Z,5.20
2018-03-16T04:56:09.968Z,5.23
2018-03-16T04:58:37.357Z,4.70
2018-03-16T05:01:04.764Z,4.80
2018-03-16T05:03:32.152Z,5.03
2018-03-16T05:05:59.537Z,4.60
2018-03-16T05:08:26.945Z,4.90
2018-03-16T05:10:54.364Z,4.67
2018-03-16T05:13:21.737Z,4.90
2018-03-16T05:15:49.141Z,4.40
2018-03-16T05:18:16.532Z,4.03
2018-03-16T05:20:43.924Z,4.60
2018-03-16T05:23:11.324Z,5.67
2018-03-16T05:25:38.715Z,4.87
2018-03-16T05:28:06.100Z,4.20
2018-03-16T05:30:33.515Z,4.90
2018-03-16T05:33:00.905Z,5.20
2018-03-16T05:35:28.293Z,5.10
2018-03-16T05:37:55.697Z,5.50
2018-03-16T05:40:23.080Z,5.20
2018-03-16T05:42:50.481Z,5.70
2018-03-16T05:45:17.886Z,5.73
2018-03-16T05:47:45.272Z,5.60
2018-03-16T05:50:12.695Z,5.73
2018-03-16T05:52:40.100Z,5.43
2018-03-16T05:55:07.488Z,4.90
2018-03-16T05:57:34.876Z,5.50
2018-03-16T06:00:02.281Z,5.53
2018-03-16T06:02:29.673Z,5.00
2018-03-16T06:04:57.065Z,5.87
2018-03-16T06:07:24.468Z,5.10
2018-03-16T06:09:51.857Z,5.53
2018-03-16T06:12:19.244Z,5.40
2018-03-16T06:14:46.648Z,5.63
2018-03-16T06:17:14.040Z,5.60
2018-03-16T06:19:41.425Z,5.73
2018-03-16T06:22:08.834Z,6.10
2018-03-16T06:24:36.230Z,5.37
2018-03-16T06:27:03.633Z,6.53
2018-03-16T06:29:31.038Z,5.30
2018-03-16T06:31:58.428Z,5.60
2018-03-16T06:34:25.812Z,6.53
2018-03-16T06:36:53.231Z,5.23
2018-03-16T06:39:20.632Z,5.80
2018-03-16T06:41:48.005Z,5.43
2018-03-16T06:44:15.411Z,5.37
2018-03-16T06:46:43.834Z,6.13
2018-03-16T06:49:11.212Z,5.70
2018-03-16T06:51:38.618Z,5.30
2018-03-16T06:54:06.016Z,6.80
2018-03-16T06:56:33.410Z,5.80
2018-03-16T06:59:00.817Z,5.57
2018-03-16T07:01:28.215Z,6.00
2018-03-16T07:03:55.604Z,5.50
2018-03-16T07:06:23.052Z,6.80
2018-03-16T07:08:50.428Z,5.50
2018-03-16T07:11:17.819Z,6.03
2018-03-16T07:13:45.224Z,5.30
2018-03-16T07:16:12.608Z,5.30
2018-03-16T07:18:40.008Z,4.70
2018-03-16T07:21:07.411Z,5.60
2018-03-16T07:23:34.818Z,5.03
2018-03-16T07:26:02.199Z,5.20
2018-03-16T07:28:29.609Z,5.17
2018-03-16T07:30:57.045Z,4.27
2018-03-16T07:33:24.393Z,5.07
2018-03-16T07:35:51.841Z,4.60
2018-03-16T07:38:19.234Z,4.90
2018-03-16T07:40:46.635Z,4.93
2018-03-16T07:43:14.040Z,4.90
2018-03-16T07:45:47.185Z,4.40
2018-03-16T07:48:14.589Z,5.07
2018-03-16T07:50:41.984Z,4.67
2018-03-16T07:53:09.381Z,5.40
2018-03-16T07:55:36.785Z,4.97
2018-03-16T07:58:04.177Z,5.57
2018-03-16T08:00:31.572Z,4.67
2018-03-16T08:02:58.973Z,5.20
2018-03-16T08:05:26.366Z,5.50
2018-03-16T08:07:53.750Z,4.90
2018-03-16T08:10:21.162Z,5.20
2018-03-16T08:12:48.563Z,5.43
2018-03-16T08:15:15.993Z,4.60
2018-03-16T08:17:43.348Z,4.50
2018-03-16T08:20:10.753Z,4.23
2018-03-16T08:22:38.137Z,4.30
2018-03-16T08:25:05.561Z,4.23
2018-03-16T08:27:33.049Z,4.43
2018-03-16T08:30:00.433Z,4.33
2018-03-16T08:32:27.841Z,4.03
2018-03-16T08:34:55.249Z,4.60
2018-03-16T08:37:22.632Z,3.97
2018-03-16T08:39:50.055Z,4.10
2018-03-16T08:42:17.439Z,4.17
2018-03-16T08:44:44.841Z,3.63
2018-03-16T08:47:12.245Z,3.57
2018-03-16T08:49:39.637Z,3.50
2018-03-16T08:52:07.020Z,3.67
2018-03-16T08:54:34.469Z,3.70
2018-03-16T08:57:02.746Z,4.50
2018-03-16T08:59:30.142Z,3.80
2018-03-16T09:01:57.562Z,4.57
2018-03-16T09:04:24.954Z,3.93
2018-03-16T09:06:52.345Z,3.60
2018-03-16T09:09:19.761Z,4.37
2018-03-16T09:11:47.165Z,4.27
2018-03-16T09:14:14.560Z,4.93
2018-03-16T09:16:41.964Z,4.00
2018-03-16T09:19:09.365Z,4.40
2018-03-16T09:21:36.774Z,4.37
2018-03-16T09:24:04.180Z,5.33
2018-03-16T09:26:31.588Z,5.33
2018-03-16T09:28:59.005Z,4.40
2018-03-16T09:31:26.511Z,4.33
2018-03-16T09:33:53.901Z,4.10
2018-03-16T09:36:21.294Z,4.70
2018-03-16T09:38:48.712Z,4.20
2018-03-16T09:41:16.103Z,4.67
2018-03-16T09:43:43.501Z,4.40
2018-03-16T09:46:10.914Z,4.33
2018-03-16T09:48:38.304Z,4.67
2018-03-16T09:51:05.718Z,4.40
2018-03-16T09:53:33.253Z,4.27
2018-03-16T09:56:00.636Z,4.07
2018-03-16T09:58:28.062Z,4.87
2018-03-16T10:00:55.457Z,4.00
2018-03-16T10:03:22.852Z,4.70
2018-03-16T10:05:50.252Z,5.20
2018-03-16T10:08:17.674Z,4.87
2018-03-16T10:10:45.069Z,4.63
2018-03-16T10:13:12.468Z,4.40
2018-03-16T10:15:39.891Z,4.70
2018-03-16T10:18:07.280Z,4.43
2018-03-16T10:20:34.675Z,4.03
2018-03-16T10:23:02.095Z,4.70
2018-03-16T10:25:29.472Z,5.03
2018-03-16T10:27:56.869Z,5.43
2018-03-16T10:30:24.290Z,4.43
2018-03-16T10:32:51.685Z,4.73
2018-03-16T10:35:19.089Z,4.97
2018-03-16T10:37:46.533Z,4.50
2018-03-16T10:40:13.925Z,4.80
2018-03-16T10:42:41.326Z,4.60
2018-03-16T10:45:08.739Z,4.57
2018-03-16T10:47:36.140Z,4.20
2018-03-16T10:50:03.536Z,4.80
2018-03-16T10:52:30.954Z,4.00
2018-03-16T10:54:58.348Z,4.27
2018-03-16T10:57:25.736Z,3.90
2018-03-16T10:59:53.148Z,4.37
2018-03-16T11:02:20.546Z,4.90
2018-03-16T11:04:53.496Z,5.30
2018-03-16T11:07:20.893Z,5.30
2018-03-16T11:09:48.287Z,4.63
2018-03-16T11:12:15.701Z,4.63
2018-03-16T11:14:43.145Z,5.00
2018-03-16T11:17:10.545Z,4.23
2018-03-16T11:19:37.954Z,4.50
2018-03-16T11:22:05.348Z,4.30
2018-03-16T11:24:32.781Z,4.80
2018-03-16T11:27:00.197Z,4.30
2018-03-16T11:29:27.597Z,4.27
2018-03-16T11:31:54.987Z,4.30
2018-03-16T11:34:22.397Z,4.23
2018-03-16T11:36:49.793Z,4.50
2018-03-16T11:39:17.199Z,4.60
2018-03-16T11:41:44.617Z,4.40
2018-03-16T11:44:12.009Z,3.93
2018-03-16T11:46:39.404Z,4.80
2018-03-16T11:49:06.821Z,4.63
2018-03-16T11:51:34.228Z,4.50
2018-03-16T11:54:01.621Z,4.47
2018-03-16T11:56:29.027Z,4.43
2018-03-16T11:58:56.443Z,3.77
2018-03-16T12:01:23.833Z,4.30
2018-03-16T12:03:51.241Z,4.00
2018-03-16T12:06:18.632Z,4.10
2018-03-16T12:08:46.021Z,3.93
2018-03-16T12:11:13.437Z,8.13
2018-03-16T12:13:40.833Z,4.20
2018-03-16T12:16:08.220Z,4.47
2018-03-16T12:18:35.635Z,3.80
2018-03-16T12:21:03.024Z,4.10
2018-03-16T12:23:30.424Z,3.97
2018-03-16T12:25:57.837Z,4.33
2018-03-16T12:28:25.227Z,4.07
2018-03-16T12:30:52.643Z,5.77
2018-03-16T12:33:20.039Z,4.70
2018-03-16T12:35:47.433Z,4.20
2018-03-16T12:38:14.828Z,4.20
2018-03-16T12:40:42.235Z,4.40
2018-03-16T12:43:09.629Z,3.97
2018-03-16T12:45:37.033Z,4.27
2018-03-16T12:48:04.443Z,4.37
2018-03-16T12:50:31.836Z,3.90
2018-03-16T12:52:59.234Z,4.10
2018-03-16T12:55:26.653Z,4.20
2018-03-16T12:57:54.053Z,4.10
2018-03-16T13:00:21.449Z,5.43
2018-03-16T13:02:48.865Z,3.80
2018-03-16T13:05:16.265Z,4.30
2018-03-16T13:07:43.744Z,4.60
2018-03-16T13:10:11.149Z,4.40
2018-03-16T13:12:38.539Z,4.33
2018-03-16T13:15:05.939Z,4.33
2018-03-16T13:17:33.357Z,5.17
2018-03-16T13:20:00.756Z,4.30
2018-03-16T13:22:28.153Z,4.27
2018-03-16T13:24:55.571Z,4.57
2018-03-16T13:27:22.968Z,4.80
2018-03-16T13:29:50.373Z,4.93
2018-03-16T13:32:17.793Z,4.50
2018-03-16T13:34:45.294Z,5.20
2018-03-16T13:37:12.669Z,4.50
2018-03-16T13:39:40.120Z,4.20
2018-03-16T13:42:07.512Z,4.43
2018-03-16T13:44:34.909Z,5.50
2018-03-16T13:47:02.323Z,4.10
2018-03-16T13:49:29.712Z,4.63
2018-03-16T13:51:57.160Z,4.60
2018-03-16T13:54:24.518Z,4.73
2018-03-16T13:56:51.926Z,4.60
2018-03-16T13:59:19.312Z,5.87
2018-03-16T14:01:46.725Z,4.90
2018-03-16T14:04:14.129Z,4.50
2018-03-16T14:06:41.530Z,4.50
2018-03-16T14:09:09.150Z,5.00
2018-03-16T14:11:36.538Z,4.60
2018-03-16T14:14:03.943Z,4.17
2018-03-16T14:16:31.360Z,4.40
2018-03-16T14:18:58.759Z,4.37
2018-03-16T14:21:26.149Z,4.33
2018-03-16T14:23:53.566Z,3.97
2018-03-16T14:26:20.960Z,4.60
2018-03-16T14:28:48.360Z,4.03
2018-03-16T14:31:15.777Z,5.13
2018-03-16T14:33:43.172Z,4.50
2018-03-16T14:36:10.570Z,4.70
2018-03-16T14:38:38.067Z,4.80
2018-03-16T14:41:05.458Z,3.97
2018-03-16T14:43:32.848Z,4.40
2018-03-16T14:46:00.269Z,4.50
2018-03-16T14:48:27.743Z,5.30
2018-03-16T14:50:55.131Z,4.50
2018-03-16T14:53:22.533Z,4.80
2018-03-16T14:55:49.938Z,5.07
2018-03-16T14:58:17.332Z,4.57
2018-03-16T15:00:44.771Z,4.90
2018-03-16T15:03:12.174Z,4.53
2018-03-16T15:05:39.573Z,4.10
2018-03-16T15:08:06.982Z,4.60
2018-03-16T15:10:34.391Z,5.00
2018-03-16T15:13:01.768Z,4.53
2018-03-16T15:15:29.169Z,5.00
2018-03-16T15:17:56.565Z,4.90
2018-03-16T15:20:23.962Z,4.60
2018-03-16T15:22:51.377Z,4.80
2018-03-16T15:25:18.812Z,5.37
2018-03-16T15:27:46.198Z,4.63
2018-03-16T15:30:13.610Z,4.47
2018-03-16T15:32:41.030Z,4.10
2018-03-16T15:35:08.413Z,4.77
2018-03-16T15:37:35.820Z,4.00
2018-03-16T15:40:03.576Z,4.33
2018-03-16T15:42:30.962Z,4.33
2018-03-16T15:44:58.368Z,4.63
2018-03-16T15:47:25.769Z,4.70
2018-03-16T15:49:53.152Z,5.40
2018-03-16T15:52:20.613Z,4.43
2018-03-16T15:54:48.009Z,4.30
2018-03-16T15:57:15.405Z,4.50
2018-03-16T15:59:42.823Z,4.23
2018-03-16T16:02:10.217Z,4.33
2018-03-16T16:04:37.626Z,6.53
2018-03-16T16:07:05.124Z,5.47
2018-03-16T16:09:32.505Z,4.87
2018-03-16T16:11:59.905Z,8.70
2018-03-16T16:14:27.325Z,4.80
2018-03-16T16:16:54.716Z,4.93
2018-03-16T16:19:22.113Z,4.50
2018-03-16T16:21:49.562Z,5.37
2018-03-16T16:24:16.944Z,5.20
2018-03-16T16:26:44.346Z,4.93
2018-03-16T16:29:11.753Z,6.13
2018-03-16T16:31:39.154Z,5.23
2018-03-16T16:34:06.549Z,5.40
2018-03-16T16:36:33.961Z,5.00
2018-03-16T16:39:01.405Z,5.07
2018-03-16T16:41:28.758Z,5.33
2018-03-16T16:43:56.168Z,4.70
2018-03-16T16:46:24.516Z,5.07
2018-03-16T16:48:51.908Z,5.40
2018-03-16T16:51:19.370Z,4.97
2018-03-16T16:53:46.750Z,4.50
2018-03-16T16:56:14.215Z,5.60
2018-03-16T16:58:41.631Z,5.77
2018-03-16T17:01:09.025Z,5.43
2018-03-16T17:03:36.432Z,6.03
2018-03-16T17:06:03.841Z,5.60
2018-03-16T17:08:31.234Z,4.67
2018-03-16T17:10:58.634Z,4.67
2018-03-16T17:13:26.064Z,4.60
2018-03-16T17:15:53.457Z,4.60
2018-03-16T17:18:20.853Z,4.53
2018-03-16T17:20:48.259Z,5.40
2018-03-16T17:23:15.759Z,4.50
2018-03-16T17:25:43.141Z,4.60
2018-03-16T17:28:10.578Z,5.27
2018-03-16T17:30:38.022Z,6.20
2018-03-16T17:33:05.418Z,5.37
2018-03-16T17:35:32.840Z,6.47
2018-03-16T17:38:00.240Z,6.03
2018-03-16T17:40:27.640Z,5.93
2018-03-16T17:42:55.049Z,6.30
2018-03-16T17:45:22.449Z,5.63
2018-03-16T17:47:49.857Z,7.50
2018-03-16T17:50:17.265Z,7.83
2018-03-16T17:52:44.671Z,18.00
2018-03-16T17:55:12.078Z,16.20
2018-03-16T17:57:39.501Z,12.07
2018-03-16T18:00:06.900Z,9.00
2018-03-16T18:02:34.347Z,8.60
2018-03-16T18:05:01.761Z,8.20
2018-03-16T18:07:29.148Z,5.50
2018-03-16T18:09:56.559Z,5.67
2018-03-16T18:12:23.990Z,5.67
2018-03-16T18:14:51.380Z,5.00
2018-03-16T18:17:18.794Z,4.77
2018-03-16T18:19:46.208Z,5.60
2018-03-16T18:22:15.762Z,5.50
2018-03-16T18:24:43.258Z,5.97
2018-03-16T18:27:10.669Z,5.50
2018-03-16T18:29:38.077Z,5.83
2018-03-16T18:32:05.475Z,5.80
2018-03-16T18:34:32.880Z,5.40
2018-03-16T18:37:00.273Z,5.50
2018-03-16T18:39:27.791Z,7.10
2018-03-16T18:41:55.399Z,6.20
2018-03-16T18:44:22.888Z,6.00
2018-03-16T18:46:50.443Z,7.10
2018-03-16T18:49:18.206Z,6.27
2018-03-16T18:51:45.853Z,5.80
2018-03-16T18:54:13.579Z,6.03
2018-03-16T18:56:41.247Z,5.17
2018-03-16T18:59:09.033Z,5.50
2018-03-16T19:01:36.900Z,6.07
2018-03-16T19:04:04.809Z,5.20
2018-03-16T19:06:32.718Z,4.60
2018-03-16T19:09:00.200Z,4.83
2018-03-16T19:11:28.175Z,5.50
2018-03-16T19:13:56.492Z,5.97
2018-03-16T19:16:24.771Z,5.70
2018-03-16T19:18:53.227Z,5.70
2018-03-16T19:21:21.634Z,5.00
2018-03-16T19:23:49.924Z,5.23
2018-03-16T19:26:18.334Z,5.57
2018-03-16T19:28:46.623Z,5.87
2018-03-16T19:31:14.846Z,4.90
2018-03-16T19:33:43.222Z,5.50
2018-03-16T19:36:11.534Z,5.37
2018-03-16T19:38:39.865Z,6.47
2018-03-16T19:41:08.240Z,5.77
2018-03-16T19:43:36.519Z,5.20
2018-03-16T19:46:04.792Z,5.77
2018-03-16T19:48:33.226Z,6.37
2018-03-16T19:51:01.607Z,6.20
2018-03-16T19:53:29.915Z,6.60
2018-03-16T19:55:58.448Z,12.30
2018-03-16T19:58:27.555Z,8.23
2018-03-16T20:00:55.906Z,9.20
2018-03-16T20:03:24.294Z,7.43
2018-03-16T20:05:52.582Z,6.33
2018-03-16T20:08:20.896Z,7.80
2018-03-16T20:10:49.550Z,8.10
2018-03-16T20:13:17.812Z,7.43
2018-03-16T20:15:46.064Z,7.47
2018-03-16T20:18:14.541Z,8.10
2018-03-16T20:20:42.802Z,6.73
2018-03-16T20:23:11.099Z,7.90
2018-03-16T20:25:40.398Z,7.43
2018-03-16T20:28:08.799Z,7.93
2018-03-16T20:30:37.043Z,8.27
2018-03-16T20:33:06.039Z,8.40
2018-03-16T20:35:34.334Z,8.70
2018-03-16T20:38:02.617Z,8.10
2018-03-16T20:40:31.008Z,8.37
2018-03-16T20:42:59.316Z,8.33
2018-03-16T20:45:27.619Z,7.50
2018-03-16T20:47:56.048Z,8.57
2018-03-16T20:50:24.383Z,8.63
2018-03-16T20:52:52.746Z,9.83
2018-03-16T20:55:21.129Z,9.97
2018-03-16T20:57:49.490Z,9.03
2018-03-16T21:00:17.801Z,8.98
2018-03-16T21:02:46.180Z,10.00
2018-03-16T21:05:15.403Z,10.53
2018-03-16T21:07:44.191Z,10.70
2018-03-16T21:10:12.575Z,11.37
2018-03-16T21:12:40.908Z,11.00
2018-03-16T21:15:09.300Z,12.67
2018-03-16T21:17:37.702Z,11.27
2018-03-16T21:20:06.214Z,13.20
2018-03-16T21:22:34.581Z,12.37
2018-03-16T21:25:03.488Z,11.73
2018-03-16T21:27:31.821Z,10.90
2018-03-16T21:30:00.144Z,11.53
2018-03-16T21:32:28.551Z,13.00
2018-03-16T21:34:56.856Z,13.20
2018-03-16T21:37:26.120Z,13.27
2018-03-16T21:39:54.543Z,11.70
2018-03-16T21:42:22.880Z,12.57
2018-03-16T21:44:51.143Z,11.60
2018-03-16T21:47:19.473Z,11.48
2018-03-16T21:49:48.406Z,11.85
2018-03-16T21:52:16.742Z,13.40
2018-03-16T21:54:45.102Z,13.70
2018-03-16T21:57:13.393Z,13.82
2018-03-16T21:59:41.691Z,12.63
2018-03-16T22:02:10.057Z,12.57
2018-03-16T22:04:38.390Z,11.60
2018-03-16T22:07:06.610Z,13.73
2018-03-16T22:09:34.967Z,14.38
2018-03-16T22:12:03.272Z,13.05
2018-03-16T22:14:31.564Z,13.80
2018-03-16T22:16:59.821Z,14.73
2018-03-16T22:19:28.044Z,13.02
2018-03-16T22:21:56.078Z,13.20
2018-03-16T22:24:24.086Z,13.77
2018-03-16T22:26:51.792Z,12.65
2018-03-16T22:29:19.382Z,13.20
2018-03-16T22:31:46.934Z,13.00
2018-03-16T22:34:14.410Z,12.95
2018-03-16T22:36:41.839Z,12.60
2018-03-16T22:39:09.369Z,14.10
2018-03-16T22:41:36.820Z,13.88
2018-03-16T22:44:04.226Z,13.27
2018-03-16T22:46:31.649Z,16.35
2018-03-16T22:48:59.048Z,16.30
2018-03-16T22:51:26.460Z,16.50
2018-03-16T22:53:53.885Z,17.40
2018-03-16T22:56:21.303Z,17.90
2018-03-16T22:58:48.765Z,23.17
2018-03-16T23:01:16.196Z,25.12
2018-03-16T23:03:43.626Z,25.55
2018-03-16T23:06:11.062Z,21.60
2018-03-16T23:08:38.501Z,23.38
2018-03-16T23:11:05.923Z,19.58
2018-03-16T23:13:33.327Z,21.30
2018-03-16T23:16:00.757Z,19.52
2018-03-16T23:18:28.173Z,16.25
2018-03-16T23:20:55.597Z,15.77
2018-03-16T23:23:23.033Z,15.35
2018-03-16T23:25:50.439Z,16.67
2018-03-16T23:28:17.948Z,15.93
2018-03-16T23:30:45.425Z,14.13
2018-03-16T23:33:12.926Z,14.13
2018-03-16T23:35:40.322Z,13.20
2018-03-16T23:38:07.740Z,13.93
2018-03-16T23:40:35.165Z,12.55
2018-03-16T23:43:02.578Z,13.35
2018-03-16T23:45:29.996Z,12.30
2018-03-16T23:47:57.421Z,12.40
2018-03-16T23:50:24.825Z,13.90
2018-03-16T23:52:52.266Z,11.32
2018-03-16T23:55:19.685Z,11.38
2018-03-16T23:57:47.092Z,12.20
